createdAt,value
2022-10-23T00:00:00.436Z,12.5
2022-10-23T00:05:00.399Z,12.2
2022-10-23T00:09:59.964Z,12.1
2022-10-23T00:15:00.132Z,12.1
2022-10-23T00:20:00.110Z,12.1
2022-10-23T00:25:00.089Z,12.5
2022-10-23T00:30:00.554Z,12.5
2022-10-23T00:35:00.432Z,12.3
2022-10-23T00:40:00.269Z,12.2
2022-10-23T00:44:59.922Z,12.4
2022-10-23T00:50:00.579Z,12.2
2022-10-23T00:55:00.427Z,12
2022-10-23T01:00:00.580Z,12.1
2022-10-23T01:04:59.974Z,12.1
2022-10-23T01:10:00.057Z,12.1
2022-10-23T01:15:02.747Z,12.1
2022-10-23T01:19:59.939Z,11.9
2022-10-23T01:24:59.892Z,11.9
2022-10-23T01:30:03.690Z,11.9
2022-10-23T01:35:02.413Z,12.1
2022-10-23T01:39:59.964Z,12.3
2022-10-23T01:45:00.093Z,12
2022-10-23T01:49:59.974Z,12.2
2022-10-23T01:55:00.004Z,12
2022-10-23T01:59:59.896Z,11.9
2022-10-23T02:04:59.865Z,11.9
2022-10-23T02:10:00.023Z,11.8
2022-10-23T02:15:00.099Z,11.8
2022-10-23T02:20:00.014Z,11.7
2022-10-23T02:25:06.347Z,11.9
2022-10-23T02:30:02.455Z,12
2022-10-23T02:35:00.511Z,11.9
2022-10-23T02:39:59.810Z,11.8
2022-10-23T02:45:00.115Z,11.9
2022-10-23T02:49:59.850Z,11.9
2022-10-23T02:54:59.843Z,11.8
2022-10-23T03:00:00.151Z,11.9
2022-10-23T03:05:00.281Z,11.8
2022-10-23T03:09:59.981Z,11.7
2022-10-23T03:14:59.814Z,11.9
2022-10-23T03:19:59.766Z,11.6
2022-10-23T03:25:00.060Z,11.7
2022-10-23T03:29:59.858Z,11.6
2022-10-23T03:35:00.020Z,11.6
2022-10-23T03:39:59.741Z,11.5
2022-10-23T03:44:59.859Z,11.5
2022-10-23T03:50:00.013Z,11.5
2022-10-23T03:55:00.360Z,11.4
2022-10-23T03:59:59.785Z,11.5
2022-10-23T04:05:00.109Z,11.7
2022-10-23T04:09:59.865Z,11.6
2022-10-23T04:15:00.023Z,11.5
2022-10-23T04:19:59.810Z,11.5
2022-10-23T04:24:59.710Z,11.5
2022-10-23T04:30:00.005Z,11.7
2022-10-23T04:34:59.699Z,11.6
2022-10-23T04:39:59.677Z,11.8
2022-10-23T04:44:59.680Z,11.7
2022-10-23T04:49:59.955Z,11.7
2022-10-23T04:54:59.826Z,11.6
2022-10-23T05:00:00.406Z,11.7
2022-10-23T05:04:59.820Z,11.8
2022-10-23T05:10:00.079Z,11.8
2022-10-23T05:14:59.886Z,12
2022-10-23T05:20:01.611Z,12.2
2022-10-23T05:25:00.110Z,12.2
2022-10-23T05:29:59.689Z,12.1
2022-10-23T05:34:59.907Z,12.2
2022-10-23T05:39:59.994Z,12.2
2022-10-23T05:44:59.785Z,12.1
2022-10-23T05:50:00.181Z,12.2
2022-10-23T05:54:59.598Z,12.4
2022-10-23T05:59:59.720Z,12.2
2022-10-23T06:04:59.854Z,12.4
2022-10-23T06:09:59.653Z,12.4
2022-10-23T06:14:59.925Z,12.3
2022-10-23T06:19:59.868Z,12.2
2022-10-23T06:24:59.899Z,12.4
2022-10-23T06:29:59.811Z,12.5
2022-10-23T06:34:59.779Z,12.2
2022-10-23T06:39:59.955Z,12.4
2022-10-23T06:45:03.381Z,12.3
2022-10-23T06:50:00.062Z,12.3
2022-10-23T06:54:59.879Z,12.4
2022-10-23T06:59:59.861Z,12.4
2022-10-23T07:04:59.794Z,12.3
2022-10-23T07:09:59.871Z,12.4
2022-10-23T07:14:59.842Z,12.6
2022-10-23T07:19:59.778Z,12.4
2022-10-23T07:24:59.752Z,12.7
2022-10-23T07:29:59.852Z,12.6
2022-10-23T07:34:59.833Z,12.6
2022-10-23T07:39:59.879Z,12.9
2022-10-23T07:44:59.479Z,12.7
2022-10-23T07:49:59.573Z,12.7
2022-10-23T07:54:59.817Z,12.9
2022-10-23T07:59:59.941Z,13
2022-10-23T08:04:59.807Z,12.9
2022-10-23T08:09:59.736Z,13.2
2022-10-23T08:14:59.751Z,13.1
2022-10-23T08:19:59.668Z,13.2
2022-10-23T08:24:59.882Z,13.2
2022-10-23T08:30:00.027Z,13.3
2022-10-23T08:34:59.730Z,13.3
2022-10-23T08:39:59.589Z,13.3
2022-10-23T08:44:59.606Z,13.3
2022-10-23T08:49:59.549Z,13.5
2022-10-23T08:54:59.652Z,13.5
2022-10-23T08:59:59.736Z,13.6
2022-10-23T09:04:59.547Z,13.7
2022-10-23T09:09:59.663Z,13.7
2022-10-23T09:14:59.442Z,13.9
2022-10-23T09:20:04.252Z,14.1
2022-10-23T09:24:59.559Z,13.8
2022-10-23T09:29:59.678Z,14
2022-10-23T09:34:59.633Z,13.9
2022-10-23T09:39:59.624Z,14
2022-10-23T09:44:59.440Z,14
2022-10-23T09:49:59.328Z,13.9
2022-10-23T09:54:59.304Z,14
2022-10-23T10:00:00.825Z,14.2
2022-10-23T10:04:59.553Z,14.2
2022-10-23T10:09:59.557Z,14.3
2022-10-23T10:15:02.995Z,14.3
2022-10-23T10:20:03.718Z,14.5
2022-10-23T10:24:59.383Z,14.4
2022-10-23T10:29:59.335Z,14.8
2022-10-23T10:35:03.693Z,14.9
2022-10-23T10:39:59.610Z,14.9
2022-10-23T10:44:59.316Z,14.8
2022-10-23T10:49:59.491Z,15.1
2022-10-23T10:54:59.499Z,15.1
2022-10-23T11:00:01.627Z,15
2022-10-23T11:04:59.506Z,15.3
2022-10-23T11:09:59.492Z,15.2
2022-10-23T11:14:59.325Z,15.3
2022-10-23T11:19:59.279Z,15.4
2022-10-23T11:25:05.916Z,15.7
2022-10-23T11:30:05.922Z,15.6
2022-10-23T11:35:05.047Z,15.7
2022-10-23T11:39:59.546Z,16
2022-10-23T11:44:59.510Z,16.1
2022-10-23T11:49:59.449Z,16.4
2022-10-23T11:55:00.536Z,16.5
2022-10-23T11:59:59.578Z,16.6
2022-10-23T12:04:59.332Z,16.7
2022-10-23T12:09:59.523Z,16.6
2022-10-23T12:14:59.402Z,16.7
2022-10-23T12:20:03.925Z,16.6
2022-10-23T12:25:01.709Z,16.6
2022-10-23T12:29:59.441Z,16.6
2022-10-23T12:35:20.185Z,16.6
2022-10-23T12:39:59.637Z,16.9
2022-10-23T12:45:00.392Z,16.7
2022-10-23T12:49:59.380Z,16.8
2022-10-23T12:54:59.182Z,16.9
2022-10-23T12:59:59.314Z,17
2022-10-23T13:04:59.535Z,16.9
2022-10-23T13:09:59.196Z,16.8
2022-10-23T13:14:59.147Z,17.1
2022-10-23T13:19:59.200Z,17.1
2022-10-23T13:24:59.675Z,17.2
2022-10-23T13:29:59.172Z,17.2
2022-10-23T13:35:10.122Z,17.3
2022-10-23T13:39:59.888Z,17.2
2022-10-23T13:44:59.585Z,17.4
2022-10-23T13:49:59.101Z,17.4
2022-10-23T13:54:59.528Z,17.3
2022-10-23T13:59:59.352Z,17.5
2022-10-23T14:04:59.129Z,17.4
2022-10-23T14:09:59.293Z,17.4
2022-10-23T14:14:59.549Z,17.4
2022-10-23T14:19:59.121Z,17.6
2022-10-23T14:24:59.199Z,17.9
2022-10-23T14:29:59.070Z,18
2022-10-23T14:34:59.089Z,18.1
2022-10-23T14:39:59.093Z,17.8
2022-10-23T14:44:59.074Z,17.9
2022-10-23T14:49:59.173Z,17.8
2022-10-23T14:54:59.326Z,17.9
2022-10-23T14:59:59.352Z,17.8
2022-10-23T15:04:59.307Z,17.8
2022-10-23T15:09:59.121Z,17.7
2022-10-23T15:14:59.165Z,17.7
2022-10-23T15:19:59.252Z,17.6
2022-10-23T15:24:59.120Z,17.8
2022-10-23T15:29:59.076Z,17.6
2022-10-23T15:34:59.169Z,17.7
2022-10-23T15:40:01.400Z,17.6
2022-10-23T15:44:59.231Z,17.5
2022-10-23T15:49:59.058Z,17.5
2022-10-23T15:54:59.275Z,17.6
2022-10-23T15:59:59.010Z,17.6
2022-10-23T16:04:59.225Z,17.6
2022-10-23T16:09:59.352Z,17.5
2022-10-23T16:14:59.053Z,17.6
2022-10-23T16:19:59.173Z,17.5
2022-10-23T16:24:58.965Z,17.4
2022-10-23T16:29:59.049Z,17.5
2022-10-23T16:34:59.247Z,17.4
2022-10-23T16:39:59.126Z,17.4
2022-10-23T16:44:59.217Z,17.4
2022-10-23T16:49:59.170Z,17.3
2022-10-23T16:54:58.867Z,17.4
2022-10-23T16:59:58.961Z,17.5
2022-10-23T17:04:59.296Z,17.4
2022-10-23T17:09:59.132Z,17.5
2022-10-23T17:14:59.144Z,17.4
2022-10-23T17:19:58.985Z,17.4
2022-10-23T17:24:59.024Z,17.3
2022-10-23T17:29:59.079Z,17.4
2022-10-23T17:34:59.079Z,17.3
2022-10-23T17:40:01.102Z,17.2
2022-10-23T17:44:58.911Z,17.1
2022-10-23T17:49:59.198Z,17.1
2022-10-23T17:54:59.189Z,17.1
2022-10-23T17:59:58.941Z,17
2022-10-23T18:04:58.883Z,17
2022-10-23T18:09:58.965Z,17
2022-10-23T18:14:59.473Z,17.1
2022-10-23T18:20:02.041Z,16.9
2022-10-23T18:24:59.233Z,17
2022-10-23T18:29:59.402Z,16.9
2022-10-23T18:34:59.042Z,17.1
2022-10-23T18:39:58.990Z,17
2022-10-23T18:44:58.932Z,17
2022-10-23T18:49:59.042Z,17
2022-10-23T18:54:58.921Z,17
2022-10-23T18:59:59.547Z,17.1
2022-10-23T19:04:59.030Z,16.8
2022-10-23T19:09:59.139Z,16.7
2022-10-23T19:14:59.004Z,16.8
2022-10-23T19:19:58.925Z,16.6
2022-10-23T19:24:59.044Z,16.7
2022-10-23T19:29:58.953Z,16.9
2022-10-23T19:34:59.065Z,16.9
2022-10-23T19:39:58.932Z,16.8
2022-10-23T19:44:58.965Z,16.6
2022-10-23T19:49:58.904Z,16.6
2022-10-23T19:54:58.908Z,16.5
2022-10-23T19:59:58.742Z,16.5
2022-10-23T20:04:58.871Z,16.3
2022-10-23T20:09:59.514Z,16.2
2022-10-23T20:14:59.196Z,15.9
2022-10-23T20:19:58.981Z,15.9
2022-10-23T20:24:59.038Z,15.8
2022-10-23T20:29:58.917Z,15.7
2022-10-23T20:34:58.938Z,15.7
2022-10-23T20:39:58.850Z,15.5
2022-10-23T20:44:58.827Z,15.5
2022-10-23T20:49:58.749Z,15.5
2022-10-23T20:54:58.918Z,15.7
2022-10-23T20:59:58.840Z,15.6
2022-10-23T21:04:59.201Z,15.5
2022-10-23T21:09:58.818Z,15.3
2022-10-23T21:14:58.778Z,15.5
2022-10-23T21:19:58.720Z,15.4
2022-10-23T21:24:58.889Z,15.4
2022-10-23T21:29:58.737Z,15.4
2022-10-23T21:34:58.785Z,15.3
2022-10-23T21:39:58.840Z,15.6
2022-10-23T21:44:58.804Z,15.5
2022-10-23T21:49:58.776Z,15.4
2022-10-23T21:54:58.755Z,15.4
2022-10-23T21:59:59.146Z,15.4
2022-10-23T22:04:58.623Z,15.4
2022-10-23T22:09:58.855Z,15.5
2022-10-23T22:14:58.926Z,15.4
2022-10-23T22:19:58.747Z,15.4
2022-10-23T22:24:58.804Z,15.6
2022-10-23T22:29:58.666Z,15.6
2022-10-23T22:34:58.877Z,15.5
2022-10-23T22:39:58.682Z,15.7
2022-10-23T22:44:58.702Z,15.7
2022-10-23T22:49:58.837Z,15.7
2022-10-23T22:54:58.591Z,15.8
2022-10-23T22:59:58.520Z,15.7
2022-10-23T23:04:58.569Z,16.1
2022-10-23T23:09:58.555Z,15.7
2022-10-23T23:14:58.515Z,15.6
2022-10-23T23:19:58.834Z,15.5
2022-10-23T23:24:58.439Z,15.5
2022-10-23T23:29:58.530Z,15.7
2022-10-23T23:34:58.657Z,15.4
2022-10-23T23:39:58.585Z,15.4
2022-10-23T23:45:31.062Z,15.5
2022-10-23T23:49:58.638Z,15.4
2022-10-23T23:54:58.463Z,15.4
2022-10-23T23:59:58.710Z,15.5
